sensor_id;sensor_type;location;lat;lon;timestamp;P1;durP1;ratioP1;P2;durP2;ratioP2
28587;SDS011;15787;49.662;10.162;2023-09-08T00:00:52;11.10;;;5.47;;
28587;SDS011;15787;49.662;10.162;2023-09-08T00:03:25;8.45;;;5.15;;
28587;SDS011;15787;49.662;10.162;2023-09-08T00:05:57;12.82;;;5.90;;
28587;SDS011;15787;49.662;10.162;2023-09-08T00:08:32;7.57;;;5.40;;
28587;SDS011;15787;49.662;10.162;2023-09-08T00:11:05;10.77;;;6.00;;
28587;SDS011;15787;49.662;10.162;2023-09-08T00:13:38;9.18;;;5.10;;
28587;SDS011;15787;49.662;10.162;2023-09-08T00:16:12;8.50;;;5.93;;
28587;SDS011;15787;49.662;10.162;2023-09-08T00:18:45;9.13;;;5.00;;
28587;SDS011;15787;49.662;10.162;2023-09-08T00:21:17;7.90;;;5.20;;
28587;SDS011;15787;49.662;10.162;2023-09-08T00:23:52;8.73;;;5.38;;
28587;SDS011;15787;49.662;10.162;2023-09-08T00:26:25;11.38;;;6.13;;
28587;SDS011;15787;49.662;10.162;2023-09-08T00:28:58;7.00;;;4.70;;
28587;SDS011;15787;49.662;10.162;2023-09-08T00:31:31;8.35;;;5.50;;
28587;SDS011;15787;49.662;10.162;2023-09-08T00:34:04;9.15;;;5.22;;
28587;SDS011;15787;49.662;10.162;2023-09-08T00:36:38;8.75;;;5.40;;
28587;SDS011;15787;49.662;10.162;2023-09-08T00:39:13;8.90;;;5.18;;
28587;SDS011;15787;49.662;10.162;2023-09-08T00:41:45;9.55;;;5.20;;
28587;SDS011;15787;49.662;10.162;2023-09-08T00:44:19;9.35;;;5.95;;
28587;SDS011;15787;49.662;10.162;2023-09-08T00:46:51;8.50;;;5.10;;
28587;SDS011;15787;49.662;10.162;2023-09-08T00:49:24;6.68;;;4.68;;
28587;SDS011;15787;49.662;10.162;2023-09-08T00:51:58;8.40;;;5.10;;
28587;SDS011;15787;49.662;10.162;2023-09-08T00:54:34;8.80;;;5.07;;
28587;SDS011;15787;49.662;10.162;2023-09-08T00:57:07;11.00;;;5.18;;
28587;SDS011;15787;49.662;10.162;2023-09-08T00:59:42;8.38;;;5.10;;
28587;SDS011;15787;49.662;10.162;2023-09-08T01:02:15;8.15;;;5.72;;
28587;SDS011;15787;49.662;10.162;2023-09-08T01:04:49;12.32;;;5.20;;
28587;SDS011;15787;49.662;10.162;2023-09-08T01:07:23;10.35;;;5.25;;
28587;SDS011;15787;49.662;10.162;2023-09-08T01:09:57;12.23;;;5.55;;
28587;SDS011;15787;49.662;10.162;2023-09-08T01:12:35;12.15;;;5.45;;
28587;SDS011;15787;49.662;10.162;2023-09-08T01:15:08;7.82;;;5.30;;
28587;SDS011;15787;49.662;10.162;2023-09-08T01:17:42;10.13;;;5.35;;
28587;SDS011;15787;49.662;10.162;2023-09-08T01:20:15;8.23;;;5.00;;
28587;SDS011;15787;49.662;10.162;2023-09-08T01:23:03;10.20;;;5.00;;
28587;SDS011;15787;49.662;10.162;2023-09-08T01:25:52;8.48;;;5.15;;
28587;SDS011;15787;49.662;10.162;2023-09-08T01:28:30;8.20;;;5.10;;
28587;SDS011;15787;49.662;10.162;2023-09-08T01:31:05;7.00;;;4.50;;
28587;SDS011;15787;49.662;10.162;2023-09-08T01:33:38;6.57;;;4.50;;
28587;SDS011;15787;49.662;10.162;2023-09-08T01:36:12;8.48;;;5.22;;
28587;SDS011;15787;49.662;10.162;2023-09-08T01:38:46;9.50;;;4.72;;
28587;SDS011;15787;49.662;10.162;2023-09-08T01:41:20;10.50;;;5.55;;
28587;SDS011;15787;49.662;10.162;2023-09-08T01:43:53;9.80;;;5.20;;
28587;SDS011;15787;49.662;10.162;2023-09-08T01:46:27;7.25;;;4.90;;
28587;SDS011;15787;49.662;10.162;2023-09-08T01:49:00;7.18;;;5.03;;
28587;SDS011;15787;49.662;10.162;2023-09-08T01:51:33;8.48;;;5.20;;
28587;SDS011;15787;49.662;10.162;2023-09-08T01:54:06;9.00;;;5.40;;
28587;SDS011;15787;49.662;10.162;2023-09-08T01:56:40;10.18;;;5.55;;
28587;SDS011;15787;49.662;10.162;2023-09-08T01:59:13;8.75;;;5.10;;
28587;SDS011;15787;49.662;10.162;2023-09-08T02:01:46;9.52;;;5.82;;
28587;SDS011;15787;49.662;10.162;2023-09-08T02:04:20;8.55;;;5.25;;
28587;SDS011;15787;49.662;10.162;2023-09-08T02:06:53;8.55;;;5.53;;
28587;SDS011;15787;49.662;10.162;2023-09-08T02:09:30;8.20;;;5.60;;
28587;SDS011;15787;49.662;10.162;2023-09-08T02:12:05;7.85;;;5.43;;
28587;SDS011;15787;49.662;10.162;2023-09-08T02:14:38;7.90;;;5.07;;
28587;SDS011;15787;49.662;10.162;2023-09-08T02:17:11;8.90;;;5.72;;
28587;SDS011;15787;49.662;10.162;2023-09-08T02:19:45;10.77;;;5.97;;
28587;SDS011;15787;49.662;10.162;2023-09-08T02:22:18;9.32;;;5.82;;
28587;SDS011;15787;49.662;10.162;2023-09-08T02:24:51;9.32;;;5.07;;
28587;SDS011;15787;49.662;10.162;2023-09-08T02:27:26;8.98;;;5.20;;
28587;SDS011;15787;49.662;10.162;2023-09-08T02:29:59;9.07;;;5.72;;
28587;SDS011;15787;49.662;10.162;2023-09-08T02:32:34;9.30;;;5.78;;
28587;SDS011;15787;49.662;10.162;2023-09-08T02:35:08;9.73;;;5.70;;
28587;SDS011;15787;49.662;10.162;2023-09-08T02:37:42;7.80;;;5.95;;
28587;SDS011;15787;49.662;10.162;2023-09-08T02:40:17;9.43;;;6.05;;
28587;SDS011;15787;49.662;10.162;2023-09-08T02:42:52;9.50;;;5.25;;
28587;SDS011;15787;49.662;10.162;2023-09-08T02:45:29;12.98;;;5.85;;
28587;SDS011;15787;49.662;10.162;2023-09-08T02:48:06;13.23;;;5.68;;
28587;SDS011;15787;49.662;10.162;2023-09-08T02:50:39;9.07;;;5.35;;
28587;SDS011;15787;49.662;10.162;2023-09-08T02:53:13;7.07;;;5.22;;
28587;SDS011;15787;49.662;10.162;2023-09-08T02:55:47;8.63;;;6.00;;
28587;SDS011;15787;49.662;10.162;2023-09-08T02:58:27;7.55;;;5.40;;
28587;SDS011;15787;49.662;10.162;2023-09-08T03:01:12;8.63;;;5.88;;
28587;SDS011;15787;49.662;10.162;2023-09-08T03:03:47;9.18;;;6.22;;
28587;SDS011;15787;49.662;10.162;2023-09-08T03:06:23;9.02;;;5.15;;
28587;SDS011;15787;49.662;10.162;2023-09-08T03:08:57;7.93;;;5.78;;
28587;SDS011;15787;49.662;10.162;2023-09-08T03:11:31;9.48;;;5.63;;
28587;SDS011;15787;49.662;10.162;2023-09-08T03:14:05;7.85;;;5.38;;
28587;SDS011;15787;49.662;10.162;2023-09-08T03:16:38;14.27;;;6.18;;
28587;SDS011;15787;49.662;10.162;2023-09-08T03:19:12;8.50;;;5.80;;
28587;SDS011;15787;49.662;10.162;2023-09-08T03:21:45;8.60;;;5.47;;
28587;SDS011;15787;49.662;10.162;2023-09-08T03:24:17;10.10;;;5.88;;
28587;SDS011;15787;49.662;10.162;2023-09-08T03:26:50;8.50;;;6.10;;
28587;SDS011;15787;49.662;10.162;2023-09-08T03:29:25;9.65;;;5.78;;
28587;SDS011;15787;49.662;10.162;2023-09-08T03:31:57;9.05;;;5.68;;
28587;SDS011;15787;49.662;10.162;2023-09-08T03:34:30;11.48;;;6.60;;
28587;SDS011;15787;49.662;10.162;2023-09-08T03:37:04;7.63;;;5.38;;
28587;SDS011;15787;49.662;10.162;2023-09-08T03:39:37;8.93;;;5.50;;
28587;SDS011;15787;49.662;10.162;2023-09-08T03:42:10;9.05;;;5.22;;
28587;SDS011;15787;49.662;10.162;2023-09-08T03:44:44;8.82;;;5.85;;
28587;SDS011;15787;49.662;10.162;2023-09-08T03:47:17;8.95;;;5.55;;
28587;SDS011;15787;49.662;10.162;2023-09-08T03:49:50;10.57;;;5.50;;
28587;SDS011;15787;49.662;10.162;2023-09-08T03:52:23;8.27;;;5.43;;
28587;SDS011;15787;49.662;10.162;2023-09-08T03:54:57;8.57;;;5.47;;
28587;SDS011;15787;49.662;10.162;2023-09-08T03:57:30;8.15;;;5.43;;
28587;SDS011;15787;49.662;10.162;2023-09-08T04:00:05;8.80;;;5.30;;
28587;SDS011;15787;49.662;10.162;2023-09-08T04:02:47;7.68;;;5.40;;
28587;SDS011;15787;49.662;10.162;2023-09-08T04:05:20;7.30;;;5.35;;
28587;SDS011;15787;49.662;10.162;2023-09-08T04:07:53;9.23;;;5.80;;
28587;SDS011;15787;49.662;10.162;2023-09-08T04:10:26;8.00;;;5.95;;
28587;SDS011;15787;49.662;10.162;2023-09-08T04:13:00;12.25;;;6.95;;
28587;SDS011;15787;49.662;10.162;2023-09-08T04:15:35;9.10;;;5.80;;
28587;SDS011;15787;49.662;10.162;2023-09-08T04:18:07;13.20;;;6.70;;
28587;SDS011;15787;49.662;10.162;2023-09-08T04:20:41;8.82;;;5.55;;
28587;SDS011;15787;49.662;10.162;2023-09-08T04:23:14;8.77;;;6.60;;
28587;SDS011;15787;49.662;10.162;2023-09-08T04:25:47;11.30;;;6.13;;
28587;SDS011;15787;49.662;10.162;2023-09-08T04:28:20;8.68;;;6.22;;
28587;SDS011;15787;49.662;10.162;2023-09-08T04:30:55;9.82;;;6.63;;
28587;SDS011;15787;49.662;10.162;2023-09-08T04:33:29;8.30;;;6.03;;
28587;SDS011;15787;49.662;10.162;2023-09-08T04:36:02;8.48;;;5.93;;
28587;SDS011;15787;49.662;10.162;2023-09-08T04:38:35;9.52;;;6.50;;
28587;SDS011;15787;49.662;10.162;2023-09-08T04:41:08;10.43;;;6.38;;
28587;SDS011;15787;49.662;10.162;2023-09-08T04:43:41;8.43;;;5.80;;
28587;SDS011;15787;49.662;10.162;2023-09-08T04:46:15;10.57;;;6.35;;
28587;SDS011;15787;49.662;10.162;2023-09-08T04:48:49;8.77;;;5.85;;
28587;SDS011;15787;49.662;10.162;2023-09-08T04:51:23;12.43;;;6.40;;
28587;SDS011;15787;49.662;10.162;2023-09-08T04:53:56;9.98;;;5.68;;
28587;SDS011;15787;49.662;10.162;2023-09-08T04:56:31;9.05;;;5.93;;
28587;SDS011;15787;49.662;10.162;2023-09-08T04:59:04;9.55;;;6.28;;
28587;SDS011;15787;49.662;10.162;2023-09-08T05:01:39;10.07;;;5.70;;
28587;SDS011;15787;49.662;10.162;2023-09-08T05:04:12;9.65;;;5.72;;
28587;SDS011;15787;49.662;10.162;2023-09-08T05:06:45;9.07;;;5.82;;
28587;SDS011;15787;49.662;10.162;2023-09-08T05:09:20;12.52;;;5.95;;
28587;SDS011;15787;49.662;10.162;2023-09-08T05:11:54;9.90;;;5.70;;
28587;SDS011;15787;49.662;10.162;2023-09-08T05:14:30;9.27;;;6.38;;
28587;SDS011;15787;49.662;10.162;2023-09-08T05:17:04;8.90;;;5.55;;
28587;SDS011;15787;49.662;10.162;2023-09-08T05:19:37;8.35;;;5.82;;
28587;SDS011;15787;49.662;10.162;2023-09-08T05:22:10;8.82;;;6.05;;
28587;SDS011;15787;49.662;10.162;2023-09-08T05:24:43;8.98;;;5.82;;
28587;SDS011;15787;49.662;10.162;2023-09-08T05:27:18;10.50;;;6.32;;
28587;SDS011;15787;49.662;10.162;2023-09-08T05:29:50;9.68;;;6.25;;
28587;SDS011;15787;49.662;10.162;2023-09-08T05:32:25;12.52;;;6.13;;
28587;SDS011;15787;49.662;10.162;2023-09-08T05:34:58;8.60;;;6.22;;
28587;SDS011;15787;49.662;10.162;2023-09-08T05:37:32;8.75;;;5.80;;
28587;SDS011;15787;49.662;10.162;2023-09-08T05:40:05;10.18;;;6.07;;
28587;SDS011;15787;49.662;10.162;2023-09-08T05:42:39;8.25;;;6.25;;
28587;SDS011;15787;49.662;10.162;2023-09-08T05:45:16;9.98;;;6.20;;
28587;SDS011;15787;49.662;10.162;2023-09-08T05:47:50;10.43;;;6.40;;
28587;SDS011;15787;49.662;10.162;2023-09-08T05:50:25;11.05;;;5.72;;
28587;SDS011;15787;49.662;10.162;2023-09-08T05:52:58;13.93;;;5.90;;
28587;SDS011;15787;49.662;10.162;2023-09-08T05:55:31;12.02;;;6.60;;
28587;SDS011;15787;49.662;10.162;2023-09-08T05:58:07;12.43;;;7.93;;
28587;SDS011;15787;49.662;10.162;2023-09-08T06:00:40;11.80;;;7.13;;
28587;SDS011;15787;49.662;10.162;2023-09-08T06:03:15;11.00;;;6.18;;
28587;SDS011;15787;49.662;10.162;2023-09-08T06:05:48;10.35;;;7.13;;
28587;SDS011;15787;49.662;10.162;2023-09-08T06:08:21;12.63;;;7.53;;
28587;SDS011;15787;49.662;10.162;2023-09-08T06:10:55;13.02;;;7.20;;
28587;SDS011;15787;49.662;10.162;2023-09-08T06:13:31;10.30;;;7.07;;
28587;SDS011;15787;49.662;10.162;2023-09-08T06:16:05;11.20;;;7.32;;
28587;SDS011;15787;49.662;10.162;2023-09-08T06:18:41;13.02;;;7.43;;
28587;SDS011;15787;49.662;10.162;2023-09-08T06:21:19;11.32;;;7.30;;
28587;SDS011;15787;49.662;10.162;2023-09-08T06:23:52;13.07;;;7.15;;
28587;SDS011;15787;49.662;10.162;2023-09-08T06:26:25;11.40;;;6.57;;
28587;SDS011;15787;49.662;10.162;2023-09-08T06:28:58;9.32;;;6.35;;
28587;SDS011;15787;49.662;10.162;2023-09-08T06:31:31;12.45;;;6.75;;
28587;SDS011;15787;49.662;10.162;2023-09-08T06:34:06;10.52;;;7.13;;
28587;SDS011;15787;49.662;10.162;2023-09-08T06:36:39;11.68;;;7.22;;
28587;SDS011;15787;49.662;10.162;2023-09-08T06:39:13;10.48;;;6.95;;
28587;SDS011;15787;49.662;10.162;2023-09-08T06:41:47;10.75;;;7.47;;
28587;SDS011;15787;49.662;10.162;2023-09-08T06:44:21;10.57;;;6.78;;
28587;SDS011;15787;49.662;10.162;2023-09-08T06:46:54;12.18;;;7.80;;
28587;SDS011;15787;49.662;10.162;2023-09-08T06:49:30;12.70;;;7.53;;
28587;SDS011;15787;49.662;10.162;2023-09-08T06:52:03;14.55;;;8.23;;
28587;SDS011;15787;49.662;10.162;2023-09-08T06:54:37;11.05;;;6.45;;
28587;SDS011;15787;49.662;10.162;2023-09-08T06:57:10;10.18;;;7.30;;
28587;SDS011;15787;49.662;10.162;2023-09-08T06:59:43;9.95;;;6.50;;
28587;SDS011;15787;49.662;10.162;2023-09-08T07:02:16;9.43;;;6.95;;
28587;SDS011;15787;49.662;10.162;2023-09-08T07:04:51;8.68;;;6.65;;
28587;SDS011;15787;49.662;10.162;2023-09-08T07:07:25;13.27;;;7.35;;
28587;SDS011;15787;49.662;10.162;2023-09-08T07:09:58;10.32;;;6.93;;
28587;SDS011;15787;49.662;10.162;2023-09-08T07:12:31;12.00;;;7.20;;
28587;SDS011;15787;49.662;10.162;2023-09-08T07:15:04;9.48;;;7.35;;
28587;SDS011;15787;49.662;10.162;2023-09-08T07:17:37;10.15;;;6.90;;
28587;SDS011;15787;49.662;10.162;2023-09-08T07:20:12;9.75;;;6.40;;
28587;SDS011;15787;49.662;10.162;2023-09-08T07:22:48;9.73;;;6.50;;
28587;SDS011;15787;49.662;10.162;2023-09-08T07:25:21;11.80;;;6.88;;
28587;SDS011;15787;49.662;10.162;2023-09-08T07:27:54;12.70;;;6.45;;
28587;SDS011;15787;49.662;10.162;2023-09-08T07:30:27;9.95;;;5.90;;
28587;SDS011;15787;49.662;10.162;2023-09-08T07:33:00;12.43;;;5.85;;
28587;SDS011;15787;49.662;10.162;2023-09-08T07:35:38;11.98;;;6.03;;
28587;SDS011;15787;49.662;10.162;2023-09-08T07:38:12;9.43;;;5.93;;
28587;SDS011;15787;49.662;10.162;2023-09-08T07:40:45;7.97;;;5.75;;
28587;SDS011;15787;49.662;10.162;2023-09-08T07:43:18;6.85;;;5.55;;
28587;SDS011;15787;49.662;10.162;2023-09-08T07:45:52;10.30;;;5.68;;
28587;SDS011;15787;49.662;10.162;2023-09-08T07:48:25;8.60;;;5.57;;
28587;SDS011;15787;49.662;10.162;2023-09-08T07:51:00;10.50;;;6.47;;
28587;SDS011;15787;49.662;10.162;2023-09-08T07:53:34;8.88;;;5.38;;
28587;SDS011;15787;49.662;10.162;2023-09-08T07:56:07;10.27;;;5.40;;
28587;SDS011;15787;49.662;10.162;2023-09-08T07:58:40;9.30;;;5.63;;
28587;SDS011;15787;49.662;10.162;2023-09-08T08:01:13;10.70;;;5.57;;
28587;SDS011;15787;49.662;10.162;2023-09-08T08:03:47;8.02;;;5.20;;
28587;SDS011;15787;49.662;10.162;2023-09-08T08:06:21;9.90;;;5.63;;
28587;SDS011;15787;49.662;10.162;2023-09-08T08:08:54;9.07;;;5.03;;
28587;SDS011;15787;49.662;10.162;2023-09-08T08:11:28;12.77;;;5.60;;
28587;SDS011;15787;49.662;10.162;2023-09-08T08:14:01;7.57;;;5.05;;
28587;SDS011;15787;49.662;10.162;2023-09-08T08:16:34;7.78;;;5.40;;
28587;SDS011;15787;49.662;10.162;2023-09-08T08:19:07;7.47;;;3.50;;
28587;SDS011;15787;49.662;10.162;2023-09-08T08:21:41;7.07;;;4.95;;
28587;SDS011;15787;49.662;10.162;2023-09-08T08:24:14;6.68;;;4.93;;
28587;SDS011;15787;49.662;10.162;2023-09-08T08:26:47;6.65;;;4.95;;
28587;SDS011;15787;49.662;10.162;2023-09-08T08:29:23;7.18;;;5.07;;
28587;SDS011;15787;49.662;10.162;2023-09-08T08:31:56;7.22;;;5.18;;
28587;SDS011;15787;49.662;10.162;2023-09-08T08:34:29;9.70;;;4.80;;
28587;SDS011;15787;49.662;10.162;2023-09-08T08:37:03;7.72;;;4.85;;
28587;SDS011;15787;49.662;10.162;2023-09-08T08:39:36;6.35;;;4.10;;
28587;SDS011;15787;49.662;10.162;2023-09-08T08:42:10;8.02;;;3.95;;
28587;SDS011;15787;49.662;10.162;2023-09-08T08:44:43;7.13;;;4.00;;
28587;SDS011;15787;49.662;10.162;2023-09-08T08:47:17;8.77;;;4.10;;
28587;SDS011;15787;49.662;10.162;2023-09-08T08:49:52;6.75;;;4.15;;
28587;SDS011;15787;49.662;10.162;2023-09-08T08:52:29;8.55;;;4.28;;
28587;SDS011;15787;49.662;10.162;2023-09-08T08:55:02;6.03;;;4.22;;
28587;SDS011;15787;49.662;10.162;2023-09-08T08:57:38;8.70;;;3.95;;
28587;SDS011;15787;49.662;10.162;2023-09-08T09:00:24;6.20;;;4.22;;
28587;SDS011;15787;49.662;10.162;2023-09-08T09:03:03;4.72;;;3.60;;
28587;SDS011;15787;49.662;10.162;2023-09-08T09:05:46;7.72;;;3.75;;
28587;SDS011;15787;49.662;10.162;2023-09-08T09:08:26;5.65;;;3.70;;
28587;SDS011;15787;49.662;10.162;2023-09-08T09:11:04;3.93;;;3.33;;
28587;SDS011;15787;49.662;10.162;2023-09-08T09:13:42;8.15;;;3.67;;
28587;SDS011;15787;49.662;10.162;2023-09-08T09:16:17;7.88;;;3.47;;
28587;SDS011;15787;49.662;10.162;2023-09-08T09:18:56;6.95;;;4.85;;
28587;SDS011;15787;49.662;10.162;2023-09-08T09:21:40;5.20;;;3.35;;
28587;SDS011;15787;49.662;10.162;2023-09-08T09:24:29;5.95;;;3.28;;
28587;SDS011;15787;49.662;10.162;2023-09-08T09:27:07;4.43;;;3.50;;
28587;SDS011;15787;49.662;10.162;2023-09-08T09:29:53;5.85;;;3.17;;
28587;SDS011;15787;49.662;10.162;2023-09-08T09:32:34;6.93;;;3.30;;
28587;SDS011;15787;49.662;10.162;2023-09-08T09:35:10;4.93;;;3.33;;
28587;SDS011;15787;49.662;10.162;2023-09-08T09:37:44;8.07;;;3.63;;
28587;SDS011;15787;49.662;10.162;2023-09-08T09:40:28;5.75;;;3.42;;
28587;SDS011;15787;49.662;10.162;2023-09-08T09:43:05;4.97;;;3.28;;
28587;SDS011;15787;49.662;10.162;2023-09-08T09:45:47;6.63;;;3.10;;
28587;SDS011;15787;49.662;10.162;2023-09-08T09:48:24;8.75;;;3.30;;
28587;SDS011;15787;49.662;10.162;2023-09-08T09:51:14;4.95;;;3.33;;
28587;SDS011;15787;49.662;10.162;2023-09-08T09:53:50;3.95;;;2.90;;
28587;SDS011;15787;49.662;10.162;2023-09-08T09:59:20;5.05;;;3.30;;
28587;SDS011;15787;49.662;10.162;2023-09-08T10:02:04;4.93;;;3.20;;
28587;SDS011;15787;49.662;10.162;2023-09-08T10:04:48;7.07;;;3.50;;
28587;SDS011;15787;49.662;10.162;2023-09-08T10:07:24;7.75;;;3.75;;
28587;SDS011;15787;49.662;10.162;2023-09-08T10:09:58;5.15;;;3.40;;
28587;SDS011;15787;49.662;10.162;2023-09-08T10:12:32;7.85;;;3.60;;
28587;SDS011;15787;49.662;10.162;2023-09-08T10:15:10;6.80;;;3.45;;
28587;SDS011;15787;49.662;10.162;2023-09-08T10:17:44;4.82;;;3.10;;
28587;SDS011;15787;49.662;10.162;2023-09-08T10:20:19;6.65;;;3.53;;
28587;SDS011;15787;49.662;10.162;2023-09-08T10:22:55;4.47;;;3.05;;
28587;SDS011;15787;49.662;10.162;2023-09-08T10:25:35;7.70;;;3.58;;
28587;SDS011;15787;49.662;10.162;2023-09-08T10:28:25;4.10;;;2.90;;
28587;SDS011;15787;49.662;10.162;2023-09-08T10:31:00;7.18;;;2.97;;
28587;SDS011;15787;49.662;10.162;2023-09-08T10:33:34;5.25;;;2.80;;
28587;SDS011;15787;49.662;10.162;2023-09-08T10:36:09;5.13;;;3.05;;
28587;SDS011;15787;49.662;10.162;2023-09-08T10:38:42;3.97;;;2.72;;
28587;SDS011;15787;49.662;10.162;2023-09-08T10:41:25;4.28;;;2.95;;
28587;SDS011;15787;49.662;10.162;2023-09-08T10:44:03;4.57;;;2.97;;
28587;SDS011;15787;49.662;10.162;2023-09-08T10:46:40;3.42;;;2.38;;
28587;SDS011;15787;49.662;10.162;2023-09-08T10:49:13;5.00;;;2.83;;
28587;SDS011;15787;49.662;10.162;2023-09-08T10:51:47;3.65;;;2.67;;
28587;SDS011;15787;49.662;10.162;2023-09-08T10:57:15;5.35;;;3.05;;
28587;SDS011;15787;49.662;10.162;2023-09-08T10:59:52;3.72;;;2.80;;
28587;SDS011;15787;49.662;10.162;2023-09-08T11:02:31;5.90;;;2.95;;
28587;SDS011;15787;49.662;10.162;2023-09-08T11:05:06;4.22;;;2.65;;
28587;SDS011;15787;49.662;10.162;2023-09-08T11:07:41;3.55;;;2.53;;
28587;SDS011;15787;49.662;10.162;2023-09-08T11:10:16;6.78;;;2.92;;
28587;SDS011;15787;49.662;10.162;2023-09-08T11:12:48;5.10;;;2.80;;
28587;SDS011;15787;49.662;10.162;2023-09-08T11:15:24;5.18;;;3.03;;
28587;SDS011;15787;49.662;10.162;2023-09-08T11:17:57;5.07;;;2.90;;
28587;SDS011;15787;49.662;10.162;2023-09-08T11:20:37;4.60;;;2.90;;
28587;SDS011;15787;49.662;10.162;2023-09-08T11:23:11;8.15;;;3.40;;
28587;SDS011;15787;49.662;10.162;2023-09-08T11:25:44;5.55;;;3.28;;
28587;SDS011;15787;49.662;10.162;2023-09-08T11:28:17;3.85;;;2.80;;
28587;SDS011;15787;49.662;10.162;2023-09-08T11:30:53;7.18;;;3.55;;
28587;SDS011;15787;49.662;10.162;2023-09-08T11:33:27;3.67;;;2.92;;
28587;SDS011;15787;49.662;10.162;2023-09-08T11:36:10;4.72;;;2.90;;
28587;SDS011;15787;49.662;10.162;2023-09-08T11:38:47;4.65;;;3.00;;
28587;SDS011;15787;49.662;10.162;2023-09-08T11:41:20;4.07;;;2.80;;
28587;SDS011;15787;49.662;10.162;2023-09-08T11:43:55;6.70;;;3.13;;
28587;SDS011;15787;49.662;10.162;2023-09-08T11:46:30;6.97;;;3.05;;
28587;SDS011;15787;49.662;10.162;2023-09-08T11:49:03;4.65;;;2.80;;
28587;SDS011;15787;49.662;10.162;2023-09-08T11:51:37;8.60;;;3.53;;
28587;SDS011;15787;49.662;10.162;2023-09-08T11:54:10;5.18;;;3.30;;
28587;SDS011;15787;49.662;10.162;2023-09-08T11:56:44;5.25;;;3.10;;
28587;SDS011;15787;49.662;10.162;2023-09-08T11:59:18;4.43;;;2.78;;
28587;SDS011;15787;49.662;10.162;2023-09-08T12:01:53;4.20;;;2.92;;
28587;SDS011;15787;49.662;10.162;2023-09-08T12:04:26;3.88;;;2.70;;
28587;SDS011;15787;49.662;10.162;2023-09-08T12:06:59;4.22;;;2.92;;
28587;SDS011;15787;49.662;10.162;2023-09-08T12:09:32;4.68;;;2.80;;
28587;SDS011;15787;49.662;10.162;2023-09-08T12:12:05;5.30;;;3.00;;
28587;SDS011;15787;49.662;10.162;2023-09-08T12:14:44;4.40;;;2.83;;
28587;SDS011;15787;49.662;10.162;2023-09-08T12:17:21;4.03;;;2.65;;
28587;SDS011;15787;49.662;10.162;2023-09-08T12:19:56;7.55;;;2.90;;
28587;SDS011;15787;49.662;10.162;2023-09-08T12:22:31;3.28;;;2.60;;
28587;SDS011;15787;49.662;10.162;2023-09-08T12:25:07;6.30;;;3.13;;
28587;SDS011;15787;49.662;10.162;2023-09-08T12:27:41;7.20;;;3.10;;
28587;SDS011;15787;49.662;10.162;2023-09-08T12:30:18;4.88;;;2.92;;
28587;SDS011;15787;49.662;10.162;2023-09-08T12:32:53;4.07;;;2.75;;
28587;SDS011;15787;49.662;10.162;2023-09-08T12:35:26;4.05;;;3.05;;
28587;SDS011;15787;49.662;10.162;2023-09-08T12:38:03;6.88;;;3.03;;
28587;SDS011;15787;49.662;10.162;2023-09-08T12:40:37;6.57;;;3.05;;
28587;SDS011;15787;49.662;10.162;2023-09-08T12:43:10;5.93;;;3.03;;
28587;SDS011;15787;49.662;10.162;2023-09-08T12:45:58;5.00;;;2.50;;
28587;SDS011;15787;49.662;10.162;2023-09-08T12:48:32;5.93;;;3.03;;
28587;SDS011;15787;49.662;10.162;2023-09-08T12:51:05;3.55;;;2.90;;
28587;SDS011;15787;49.662;10.162;2023-09-08T12:53:38;3.45;;;2.80;;
28587;SDS011;15787;49.662;10.162;2023-09-08T12:56:11;5.60;;;2.40;;
28587;SDS011;15787;49.662;10.162;2023-09-08T12:58:44;6.70;;;3.17;;
28587;SDS011;15787;49.662;10.162;2023-09-08T13:01:17;5.65;;;3.00;;
28587;SDS011;15787;49.662;10.162;2023-09-08T13:03:51;4.15;;;3.00;;
28587;SDS011;15787;49.662;10.162;2023-09-08T13:06:24;6.00;;;2.95;;
28587;SDS011;15787;49.662;10.162;2023-09-08T13:08:57;5.35;;;2.88;;
28587;SDS011;15787;49.662;10.162;2023-09-08T13:11:30;4.00;;;2.83;;
28587;SDS011;15787;49.662;10.162;2023-09-08T13:14:03;4.40;;;2.70;;
28587;SDS011;15787;49.662;10.162;2023-09-08T13:16:36;3.70;;;2.50;;
28587;SDS011;15787;49.662;10.162;2023-09-08T13:19:11;3.08;;;2.50;;
28587;SDS011;15787;49.662;10.162;2023-09-08T13:21:44;4.63;;;2.88;;
28587;SDS011;15787;49.662;10.162;2023-09-08T13:24:15;5.45;;;3.22;;
28587;SDS011;15787;49.662;10.162;2023-09-08T13:26:48;4.85;;;2.88;;
28587;SDS011;15787;49.662;10.162;2023-09-08T13:29:21;5.82;;;2.75;;
28587;SDS011;15787;49.662;10.162;2023-09-08T13:31:54;3.72;;;2.75;;
28587;SDS011;15787;49.662;10.162;2023-09-08T13:34:29;4.97;;;2.70;;
28587;SDS011;15787;49.662;10.162;2023-09-08T13:37:04;3.83;;;2.92;;
28587;SDS011;15787;49.662;10.162;2023-09-08T13:39:37;6.28;;;2.92;;
28587;SDS011;15787;49.662;10.162;2023-09-08T13:42:09;4.20;;;2.85;;
28587;SDS011;15787;49.662;10.162;2023-09-08T13:44:43;4.28;;;3.08;;
28587;SDS011;15787;49.662;10.162;2023-09-08T13:47:17;3.95;;;2.92;;
28587;SDS011;15787;49.662;10.162;2023-09-08T13:49:51;5.38;;;2.67;;
28587;SDS011;15787;49.662;10.162;2023-09-08T13:52:28;5.32;;;3.10;;
28587;SDS011;15787;49.662;10.162;2023-09-08T13:55:03;7.43;;;3.22;;
28587;SDS011;15787;49.662;10.162;2023-09-08T13:57:56;4.85;;;2.83;;
28587;SDS011;15787;49.662;10.162;2023-09-08T14:00:33;5.32;;;2.60;;
28587;SDS011;15787;49.662;10.162;2023-09-08T14:03:08;5.25;;;3.10;;
28587;SDS011;15787;49.662;10.162;2023-09-08T14:05:47;8.32;;;2.70;;
28587;SDS011;15787;49.662;10.162;2023-09-08T14:08:25;5.07;;;2.90;;
28587;SDS011;15787;49.662;10.162;2023-09-08T14:11:01;4.68;;;2.83;;
28587;SDS011;15787;49.662;10.162;2023-09-08T14:13:45;5.53;;;2.72;;
28587;SDS011;15787;49.662;10.162;2023-09-08T14:16:19;4.93;;;3.10;;
28587;SDS011;15787;49.662;10.162;2023-09-08T14:18:54;6.18;;;2.88;;
28587;SDS011;15787;49.662;10.162;2023-09-08T14:21:28;4.57;;;2.85;;
28587;SDS011;15787;49.662;10.162;2023-09-08T14:24:02;5.90;;;2.85;;
28587;SDS011;15787;49.662;10.162;2023-09-08T14:26:35;5.78;;;3.20;;
28587;SDS011;15787;49.662;10.162;2023-09-08T14:29:08;5.40;;;2.85;;
28587;SDS011;15787;49.662;10.162;2023-09-08T14:31:41;6.00;;;2.75;;
28587;SDS011;15787;49.662;10.162;2023-09-08T14:34:14;3.70;;;2.53;;
28587;SDS011;15787;49.662;10.162;2023-09-08T14:36:49;5.10;;;2.47;;
28587;SDS011;15787;49.662;10.162;2023-09-08T14:39:22;3.88;;;2.67;;
28587;SDS011;15787;49.662;10.162;2023-09-08T14:41:55;5.80;;;2.72;;
28587;SDS011;15787;49.662;10.162;2023-09-08T14:44:27;6.82;;;2.95;;
28587;SDS011;15787;49.662;10.162;2023-09-08T14:47:00;6.03;;;2.67;;
28587;SDS011;15787;49.662;10.162;2023-09-08T14:49:33;3.65;;;2.60;;
28587;SDS011;15787;49.662;10.162;2023-09-08T14:52:08;4.00;;;2.92;;
28587;SDS011;15787;49.662;10.162;2023-09-08T14:54:41;6.15;;;2.75;;
28587;SDS011;15787;49.662;10.162;2023-09-08T14:57:14;3.95;;;2.47;;
28587;SDS011;15787;49.662;10.162;2023-09-08T14:59:47;3.58;;;2.80;;
28587;SDS011;15787;49.662;10.162;2023-09-08T15:02:20;3.75;;;2.63;;
28587;SDS011;15787;49.662;10.162;2023-09-08T15:04:54;5.13;;;3.40;;
28587;SDS011;15787;49.662;10.162;2023-09-08T15:07:29;5.35;;;2.63;;
28587;SDS011;15787;49.662;10.162;2023-09-08T15:10:02;6.75;;;3.20;;
28587;SDS011;15787;49.662;10.162;2023-09-08T15:12:35;4.55;;;3.17;;
28587;SDS011;15787;49.662;10.162;2023-09-08T15:15:09;5.40;;;2.80;;
28587;SDS011;15787;49.662;10.162;2023-09-08T15:17:42;4.07;;;2.60;;
28587;SDS011;15787;49.662;10.162;2023-09-08T15:20:15;8.07;;;3.38;;